createdAt,value
2019-03-06T00:00:20.664Z,1003.64
2019-03-06T00:01:20.618Z,1003.71
2019-03-06T00:02:20.607Z,1003.69
2019-03-06T00:03:20.593Z,1003.65
2019-03-06T00:04:20.591Z,1003.72
2019-03-06T00:05:20.582Z,1003.72
2019-03-06T00:06:20.603Z,1003.75
2019-03-06T00:07:20.580Z,1003.75
2019-03-06T00:08:20.542Z,1003.80
2019-03-06T00:09:20.551Z,1003.80
2019-03-06T00:10:20.544Z,1003.81
2019-03-06T00:11:20.539Z,1003.81
2019-03-06T00:12:20.531Z,1003.79
2019-03-06T00:13:20.498Z,1003.80
2019-03-06T00:14:20.480Z,1003.76
2019-03-06T00:15:20.484Z,1003.77
2019-03-06T00:16:20.470Z,1003.75
2019-03-06T00:17:20.449Z,1003.74
2019-03-06T00:18:20.453Z,1003.75
2019-03-06T00:19:20.429Z,1003.75
2019-03-06T00:20:20.448Z,1003.77
2019-03-06T00:21:21.259Z,1003.78
2019-03-06T00:22:20.390Z,1003.78
2019-03-06T00:23:20.387Z,1003.74
2019-03-06T00:24:20.378Z,1003.73
2019-03-06T00:25:20.372Z,1003.73
2019-03-06T00:26:20.379Z,1003.71
2019-03-06T00:27:20.337Z,1003.73
2019-03-06T00:28:20.331Z,1003.73
2019-03-06T00:29:20.314Z,1003.66
2019-03-06T00:30:20.359Z,1003.70
2019-03-06T00:31:20.334Z,1003.68
2019-03-06T00:32:20.288Z,1003.78
2019-03-06T00:33:20.286Z,1003.68
2019-03-06T00:34:20.279Z,1003.77
2019-03-06T00:35:20.270Z,1003.80
2019-03-06T00:36:20.247Z,1003.82
2019-03-06T00:37:20.278Z,1003.75
2019-03-06T00:38:20.228Z,1003.76
2019-03-06T00:39:20.212Z,1003.75
2019-03-06T00:40:20.214Z,1003.77
2019-03-06T00:41:20.202Z,1003.76
2019-03-06T00:42:20.185Z,1003.77
2019-03-06T00:43:20.202Z,1003.79
2019-03-06T00:44:20.200Z,1003.77
2019-03-06T00:45:20.159Z,1003.80
2019-03-06T00:46:20.147Z,1003.83
2019-03-06T00:47:20.127Z,1003.87
2019-03-06T00:48:20.122Z,1003.90
2019-03-06T00:49:20.110Z,1003.86
2019-03-06T00:50:20.116Z,1003.87
2019-03-06T00:51:20.093Z,1003.98
2019-03-06T00:52:20.087Z,1003.94
2019-03-06T00:53:20.065Z,1003.92
2019-03-06T00:54:20.073Z,1003.91
2019-03-06T00:55:20.063Z,1003.86
2019-03-06T00:56:20.049Z,1003.89
2019-03-06T00:57:20.031Z,1003.96
2019-03-06T00:58:20.043Z,1003.92
2019-03-06T00:59:20.004Z,1003.93
2019-03-06T01:00:19.998Z,1003.91
2019-03-06T01:01:19.986Z,1003.90
2019-03-06T01:02:19.980Z,1003.96
2019-03-06T01:03:20.002Z,1003.91
2019-03-06T01:04:19.956Z,1003.92
2019-03-06T01:05:19.948Z,1003.96
2019-03-06T01:06:19.958Z,1003.89
2019-03-06T01:07:19.926Z,1003.96
2019-03-06T01:08:19.905Z,1003.94
2019-03-06T01:09:19.911Z,1003.91
2019-03-06T01:10:19.889Z,1003.90
2019-03-06T01:11:19.905Z,1003.87
2019-03-06T01:12:19.867Z,1004.01
2019-03-06T01:13:19.886Z,1003.94
2019-03-06T01:14:19.845Z,1003.99
2019-03-06T01:15:19.840Z,1003.95
2019-03-06T01:16:19.834Z,1003.97
2019-03-06T01:17:19.819Z,1003.97
2019-03-06T01:18:19.810Z,1003.95
2019-03-06T01:19:19.815Z,1004.01
2019-03-06T01:20:19.784Z,1004.03
2019-03-06T01:21:19.775Z,1004.04
2019-03-06T01:22:19.759Z,1003.98
2019-03-06T01:23:19.784Z,1004.08
2019-03-06T01:24:19.762Z,1004.07
2019-03-06T01:25:19.734Z,1004.10
2019-03-06T01:26:19.721Z,1004.07
2019-03-06T01:27:19.712Z,1004.05
2019-03-06T01:28:19.702Z,1004.11
2019-03-06T01:29:19.711Z,1003.98
2019-03-06T01:30:19.690Z,1004.02
2019-03-06T01:31:19.675Z,1004.04
2019-03-06T01:32:19.653Z,1004.05
2019-03-06T01:33:19.645Z,1004.08
2019-03-06T01:34:19.653Z,1004.08
2019-03-06T01:35:19.630Z,1004.02
2019-03-06T01:36:19.619Z,1004.06
2019-03-06T01:37:19.627Z,1004.12
2019-03-06T01:38:19.595Z,1004.11
2019-03-06T01:39:19.610Z,1004.04
2019-03-06T01:40:19.572Z,1004.06
2019-03-06T01:41:19.568Z,1004.12
2019-03-06T01:42:19.567Z,1004.06
2019-03-06T01:43:19.548Z,1003.99
2019-03-06T01:44:19.565Z,1004.05
2019-03-06T01:45:19.519Z,1004.05
2019-03-06T01:46:19.511Z,1003.98
2019-03-06T01:47:19.505Z,1004.04
2019-03-06T01:48:19.503Z,1004.05
2019-03-06T01:49:19.503Z,1004.03
2019-03-06T01:50:19.507Z,1004.05
2019-03-06T01:51:19.454Z,1004.03
2019-03-06T01:52:19.442Z,1004.04
2019-03-06T01:53:19.442Z,1004.12
2019-03-06T01:54:19.447Z,1004.08
2019-03-06T01:55:19.438Z,1004.08
2019-03-06T01:56:19.412Z,1004.04
2019-03-06T01:57:19.398Z,1004.03
2019-03-06T01:58:19.382Z,1004.14
2019-03-06T01:59:19.393Z,1004.02
2019-03-06T02:00:19.398Z,1004.15
2019-03-06T02:01:19.362Z,1004.18
2019-03-06T02:02:19.353Z,1004.22
2019-03-06T02:03:19.329Z,1004.20
2019-03-06T02:04:19.317Z,1004.22
2019-03-06T02:05:19.311Z,1004.23
2019-03-06T02:06:19.321Z,1004.20
2019-03-06T02:07:19.295Z,1004.22
2019-03-06T02:08:19.281Z,1004.22
2019-03-06T02:09:19.275Z,1004.21
2019-03-06T02:10:19.265Z,1004.22
2019-03-06T02:11:19.266Z,1004.20
2019-03-06T02:12:19.244Z,1004.17
2019-03-06T02:13:19.230Z,1004.21
2019-03-06T02:14:19.218Z,1004.18
2019-03-06T02:15:19.210Z,1004.19
2019-03-06T02:16:19.217Z,1004.14
2019-03-06T02:17:19.189Z,1004.15
2019-03-06T02:18:19.173Z,1004.14
2019-03-06T02:19:19.173Z,1004.14
2019-03-06T02:20:19.162Z,1004.10
2019-03-06T02:21:19.183Z,1004.10
2019-03-06T02:22:19.137Z,1004.14
2019-03-06T02:23:19.126Z,1004.21
2019-03-06T02:24:19.129Z,1004.17
2019-03-06T02:25:19.099Z,1004.17
2019-03-06T02:26:19.096Z,1004.15
2019-03-06T02:27:19.114Z,1004.15
2019-03-06T02:28:19.077Z,1004.20
2019-03-06T02:29:19.058Z,1004.14
2019-03-06T02:30:19.065Z,1004.20
2019-03-06T02:31:19.075Z,1004.17
2019-03-06T02:32:19.059Z,1004.19
2019-03-06T02:33:19.021Z,1004.24
2019-03-06T02:34:19.012Z,1004.25
2019-03-06T02:35:19.007Z,1004.27
2019-03-06T02:36:19.004Z,1004.21
2019-03-06T02:37:18.974Z,1004.22
2019-03-06T02:38:18.984Z,1004.22
2019-03-06T02:39:18.962Z,1004.24
2019-03-06T02:40:18.957Z,1004.32
2019-03-06T02:41:18.941Z,1004.21
2019-03-06T02:42:18.953Z,1004.24
2019-03-06T02:43:18.921Z,1004.24
2019-03-06T02:44:18.903Z,1004.31
2019-03-06T02:45:18.895Z,1004.29
2019-03-06T02:46:18.892Z,1004.22
2019-03-06T02:47:18.888Z,1004.26
2019-03-06T02:48:18.882Z,1004.22
2019-03-06T02:49:18.849Z,1004.29
2019-03-06T02:50:18.839Z,1004.28
2019-03-06T02:51:18.835Z,1004.22
2019-03-06T02:52:18.824Z,1004.26
2019-03-06T02:53:18.837Z,1004.23
2019-03-06T02:54:18.847Z,1004.25
2019-03-06T02:55:18.785Z,1004.28
2019-03-06T02:56:18.772Z,1004.26
2019-03-06T02:57:18.761Z,1004.28
2019-03-06T02:58:18.767Z,1004.32
2019-03-06T02:59:18.778Z,1004.31
2019-03-06T03:00:18.755Z,1004.30
2019-03-06T03:01:18.725Z,1004.27
2019-03-06T03:02:18.713Z,1004.30
2019-03-06T03:03:18.708Z,1004.31
2019-03-06T03:04:18.713Z,1004.30
2019-03-06T03:05:18.691Z,1004.25
2019-03-06T03:06:18.679Z,1004.30
2019-03-06T03:07:18.661Z,1004.26
2019-03-06T03:08:18.648Z,1004.27
2019-03-06T03:09:18.668Z,1004.28
2019-03-06T03:10:18.638Z,1004.30
2019-03-06T03:11:18.629Z,1004.34
2019-03-06T03:12:18.613Z,1004.32
2019-03-06T03:13:18.609Z,1004.40
2019-03-06T03:14:18.614Z,1004.35
2019-03-06T03:15:18.596Z,1004.41
2019-03-06T03:16:18.566Z,1004.43
2019-03-06T03:17:18.560Z,1004.40
2019-03-06T03:18:18.553Z,1004.38
2019-03-06T03:19:18.533Z,1004.40
2019-03-06T03:20:18.558Z,1004.40
2019-03-06T03:21:18.512Z,1004.40
2019-03-06T03:22:18.504Z,1004.41
2019-03-06T03:23:18.497Z,1004.39
2019-03-06T03:24:18.529Z,1004.38
2019-03-06T03:25:18.495Z,1004.37
2019-03-06T03:26:18.468Z,1004.38
2019-03-06T03:27:18.449Z,1004.35
2019-03-06T03:28:19.866Z,1004.39
2019-03-06T03:29:18.436Z,1004.36
2019-03-06T03:30:18.458Z,1004.40
2019-03-06T03:31:18.416Z,1004.34
2019-03-06T03:32:18.404Z,1004.32
2019-03-06T03:33:18.388Z,1004.33
2019-03-06T03:34:18.393Z,1004.37
2019-03-06T03:35:18.373Z,1004.37
2019-03-06T03:36:18.386Z,1004.43
2019-03-06T03:37:18.373Z,1004.41
2019-03-06T03:38:18.340Z,1004.36
2019-03-06T03:39:18.331Z,1004.42
2019-03-06T03:40:18.322Z,1004.42
2019-03-06T03:41:18.342Z,1004.45
2019-03-06T03:42:18.294Z,1004.50
2019-03-06T03:43:18.288Z,1004.51
2019-03-06T03:44:18.278Z,1004.46
2019-03-06T03:45:18.269Z,1004.48
2019-03-06T03:46:18.261Z,1004.45
2019-03-06T03:47:18.260Z,1004.44
2019-03-06T03:48:18.230Z,1004.41
2019-03-06T03:49:18.229Z,1004.51
2019-03-06T03:50:18.216Z,1004.49
2019-03-06T03:51:18.202Z,1004.50
2019-03-06T03:52:18.209Z,1004.46
2019-03-06T03:53:18.178Z,1004.47
2019-03-06T03:54:18.170Z,1004.48
2019-03-06T03:55:18.183Z,1004.50
2019-03-06T03:56:18.164Z,1004.47
2019-03-06T03:57:18.165Z,1004.46
2019-03-06T03:58:18.138Z,1004.49
2019-03-06T03:59:18.116Z,1004.42
2019-03-06T04:00:18.143Z,1004.48
2019-03-06T04:01:18.098Z,1004.41
2019-03-06T04:02:18.088Z,1004.46
2019-03-06T04:03:18.086Z,1004.45
2019-03-06T04:04:18.082Z,1004.46
2019-03-06T04:05:18.079Z,1004.45
2019-03-06T04:06:18.048Z,1004.41
2019-03-06T04:07:18.040Z,1004.47
2019-03-06T04:08:18.032Z,1004.42
2019-03-06T04:09:18.030Z,1004.40
2019-03-06T04:10:18.032Z,1004.49
2019-03-06T04:11:18.030Z,1004.48
2019-03-06T04:12:17.980Z,1004.44
2019-03-06T04:13:18.752Z,1004.50
2019-03-06T04:14:17.967Z,1004.51
2019-03-06T04:15:17.997Z,1004.51
2019-03-06T04:16:17.947Z,1004.47
2019-03-06T04:17:17.941Z,1004.55
2019-03-06T04:18:17.926Z,1004.51
2019-03-06T04:19:17.926Z,1004.53
2019-03-06T04:20:17.906Z,1004.56
2019-03-06T04:21:17.896Z,1004.53
2019-03-06T04:22:17.910Z,1004.55
2019-03-06T04:23:17.880Z,1004.50
2019-03-06T04:24:17.888Z,1004.56
2019-03-06T04:25:17.848Z,1004.53
2019-03-06T04:26:17.871Z,1004.56
2019-03-06T04:27:17.923Z,1004.57
2019-03-06T04:28:17.822Z,1004.53
2019-03-06T04:29:17.815Z,1004.52
2019-03-06T04:30:17.839Z,1004.55
2019-03-06T04:31:17.783Z,1004.51
2019-03-06T04:32:17.774Z,1004.54
2019-03-06T04:33:17.799Z,1004.56
2019-03-06T04:34:17.752Z,1004.52
2019-03-06T04:35:17.773Z,1004.58
2019-03-06T04:36:17.739Z,1004.58
2019-03-06T04:37:17.723Z,1004.57
2019-03-06T04:38:17.717Z,1004.54
2019-03-06T04:39:17.724Z,1004.56
2019-03-06T04:40:17.744Z,1004.55
2019-03-06T04:41:17.685Z,1004.53
2019-03-06T04:42:17.674Z,1004.57
2019-03-06T04:43:17.660Z,1004.49
2019-03-06T04:44:17.670Z,1004.50
2019-03-06T04:45:17.673Z,1004.47
2019-03-06T04:46:17.630Z,1004.50
2019-03-06T04:47:17.628Z,1004.48
2019-03-06T04:48:17.624Z,1004.55
2019-03-06T04:49:17.605Z,1004.51
2019-03-06T04:50:17.598Z,1004.48
2019-03-06T04:51:17.607Z,1004.52
2019-03-06T04:52:17.576Z,1004.62
2019-03-06T04:53:17.561Z,1004.58
2019-03-06T04:54:17.561Z,1004.56
2019-03-06T04:55:17.561Z,1004.52
2019-03-06T04:56:17.544Z,1004.59
2019-03-06T04:57:17.510Z,1004.53
2019-03-06T04:58:17.500Z,1004.63
2019-03-06T04:59:17.500Z,1004.52
2019-03-06T05:00:17.493Z,1004.55
2019-03-06T05:01:17.498Z,1004.60
2019-03-06T05:02:17.497Z,1004.57
2019-03-06T05:03:17.453Z,1004.58
2019-03-06T05:04:17.441Z,1004.55
2019-03-06T05:05:17.431Z,1004.51
2019-03-06T05:06:17.441Z,1004.53
2019-03-06T05:07:17.419Z,1004.56
2019-03-06T05:08:17.419Z,1004.62
2019-03-06T05:09:17.390Z,1004.53
2019-03-06T05:10:17.390Z,1004.52
2019-03-06T05:11:17.409Z,1004.51
2019-03-06T05:12:17.373Z,1004.50
2019-03-06T05:13:17.362Z,1004.51
2019-03-06T05:14:17.345Z,1004.53
2019-03-06T05:15:17.326Z,1004.54
2019-03-06T05:16:17.327Z,1004.46
2019-03-06T05:17:17.323Z,1004.53
2019-03-06T05:18:17.301Z,1004.55
2019-03-06T05:19:17.300Z,1004.49
2019-03-06T05:20:17.306Z,1004.53
2019-03-06T05:21:17.270Z,1004.59
2019-03-06T05:22:17.278Z,1004.47
2019-03-06T05:23:17.243Z,1004.57
2019-03-06T05:24:17.232Z,1004.55
2019-03-06T05:25:17.231Z,1004.57
2019-03-06T05:26:17.236Z,1004.62
2019-03-06T05:27:17.241Z,1004.55
2019-03-06T05:28:17.194Z,1004.70
2019-03-06T05:29:17.210Z,1004.65
2019-03-06T05:30:17.191Z,1004.68
2019-03-06T05:31:17.179Z,1004.63
2019-03-06T05:32:17.163Z,1004.63
2019-03-06T05:33:17.171Z,1004.60
2019-03-06T05:34:17.138Z,1004.64
2019-03-06T05:35:17.120Z,1004.63
2019-03-06T05:36:17.117Z,1004.59
2019-03-06T05:37:17.113Z,1004.63
2019-03-06T05:38:17.128Z,1004.55
2019-03-06T05:39:17.083Z,1004.59
2019-03-06T05:40:17.074Z,1004.62
2019-03-06T05:41:17.055Z,1004.62
2019-03-06T05:42:17.058Z,1004.65
2019-03-06T05:43:17.062Z,1004.59
2019-03-06T05:44:17.062Z,1004.54
2019-03-06T05:45:17.036Z,1004.53
2019-03-06T05:46:17.016Z,1004.57
2019-03-06T05:47:16.999Z,1004.62
2019-03-06T05:48:16.989Z,1004.60
2019-03-06T05:49:17.030Z,1004.64
2019-03-06T05:50:16.973Z,1004.62
2019-03-06T05:51:16.962Z,1004.58
2019-03-06T05:52:16.988Z,1004.63
2019-03-06T05:53:16.953Z,1004.62
2019-03-06T05:54:16.980Z,1004.67
2019-03-06T05:55:16.972Z,1004.64
2019-03-06T05:56:16.996Z,1004.62
2019-03-06T05:57:16.904Z,1004.65
2019-03-06T05:58:16.900Z,1004.63
2019-03-06T05:59:16.940Z,1004.67
2019-03-06T06:00:16.868Z,1004.71
2019-03-06T06:01:16.857Z,1004.70
2019-03-06T06:02:16.850Z,1004.70
2019-03-06T06:03:16.867Z,1004.69
2019-03-06T06:04:16.869Z,1004.69
2019-03-06T06:05:16.954Z,1004.67
2019-03-06T06:06:16.844Z,1004.69
2019-03-06T06:07:16.849Z,1004.65
2019-03-06T06:08:16.812Z,1004.70
2019-03-06T06:09:16.776Z,1004.61
2019-03-06T06:10:16.790Z,1004.61
2019-03-06T06:11:16.792Z,1004.63
2019-03-06T06:12:16.768Z,1004.64
2019-03-06T06:13:16.760Z,1004.64
2019-03-06T06:14:16.753Z,1004.64
2019-03-06T06:15:16.727Z,1004.57
2019-03-06T06:16:16.719Z,1004.54
2019-03-06T06:17:16.733Z,1004.57
2019-03-06T06:18:16.732Z,1004.51
2019-03-06T06:19:16.685Z,1004.53
2019-03-06T06:20:16.663Z,1004.57
2019-03-06T06:21:16.711Z,1004.44
2019-03-06T06:22:17.656Z,1004.54
2019-03-06T06:23:16.644Z,1004.52
2019-03-06T06:24:16.642Z,1004.55
2019-03-06T06:25:16.652Z,1004.52
2019-03-06T06:26:16.623Z,1004.51
2019-03-06T06:27:16.631Z,1004.56
2019-03-06T06:28:16.589Z,1004.58
2019-03-06T06:29:18.366Z,1004.54
2019-03-06T06:30:16.569Z,1004.57
2019-03-06T06:31:16.570Z,1004.56
2019-03-06T06:32:16.650Z,1004.49
2019-03-06T06:33:16.525Z,1004.46
2019-03-06T06:34:16.522Z,1004.41
2019-03-06T06:35:16.531Z,1004.43
2019-03-06T06:36:16.541Z,1004.45
2019-03-06T06:37:16.524Z,1004.48
2019-03-06T06:38:17.315Z,1004.45
2019-03-06T06:39:16.501Z,1004.49
2019-03-06T06:40:16.465Z,1004.48
2019-03-06T06:41:16.501Z,1004.50
2019-03-06T06:42:16.466Z,1004.44
2019-03-06T06:43:16.429Z,1004.48
2019-03-06T06:44:16.419Z,1004.49
2019-03-06T06:45:16.411Z,1004.52
2019-03-06T06:46:16.416Z,1004.50
2019-03-06T06:47:16.391Z,1004.46
2019-03-06T06:48:16.433Z,1004.49
2019-03-06T06:49:16.390Z,1004.50
2019-03-06T06:50:16.351Z,1004.51
2019-03-06T06:51:16.441Z,1004.36
2019-03-06T06:52:16.347Z,1004.45
2019-03-06T06:53:16.366Z,1004.41
2019-03-06T06:54:16.337Z,1004.41
2019-03-06T06:55:16.316Z,1004.34
2019-03-06T06:56:16.289Z,1004.30
2019-03-06T06:57:16.282Z,1004.29
2019-03-06T06:58:16.311Z,1004.31
2019-03-06T06:59:16.291Z,1004.30
2019-03-06T07:00:16.248Z,1004.28
2019-03-06T07:01:16.243Z,1004.22
2019-03-06T07:02:16.224Z,1004.25
2019-03-06T07:03:16.268Z,1004.24
2019-03-06T07:04:16.241Z,1004.20
2019-03-06T07:05:16.202Z,1004.21
2019-03-06T07:06:16.222Z,1004.19
2019-03-06T07:07:16.182Z,1004.15
2019-03-06T07:08:16.162Z,1004.25
2019-03-06T07:09:16.173Z,1004.12
2019-03-06T07:10:16.165Z,1004.15
2019-03-06T07:11:16.158Z,1004.22
2019-03-06T07:12:16.120Z,1004.13
2019-03-06T07:13:16.127Z,1004.25
2019-03-06T07:14:16.162Z,1004.26
2019-03-06T07:15:16.110Z,1004.29
2019-03-06T07:16:16.099Z,1004.23
2019-03-06T07:17:16.057Z,1004.22
2019-03-06T07:18:16.053Z,1004.23
2019-03-06T07:19:16.044Z,1004.19
2019-03-06T07:20:16.070Z,1004.18
2019-03-06T07:21:16.029Z,1004.21
2019-03-06T07:22:16.032Z,1004.22
2019-03-06T07:23:15.995Z,1004.15
2019-03-06T07:24:16.031Z,1004.17
2019-03-06T07:25:15.985Z,1004.18
2019-03-06T07:26:16.005Z,1004.19
2019-03-06T07:27:15.975Z,1004.20
2019-03-06T07:28:15.938Z,1004.21
2019-03-06T07:29:15.985Z,1004.21
2019-03-06T07:30:15.934Z,1004.14
2019-03-06T07:31:15.947Z,1004.16
2019-03-06T07:32:15.913Z,1004.12
2019-03-06T07:33:15.906Z,1004.04
2019-03-06T07:34:16.827Z,1004.04
2019-03-06T07:35:15.877Z,1004.04
2019-03-06T07:36:15.894Z,1004.06
2019-03-06T07:37:15.889Z,1004.04
2019-03-06T07:38:15.848Z,1004.07
2019-03-06T07:39:15.837Z,1004.07
2019-03-06T07:40:15.812Z,1004.17
2019-03-06T07:41:15.825Z,1004.20
2019-03-06T07:42:15.807Z,1004.14
2019-03-06T07:43:16.335Z,1004.13
2019-03-06T07:44:15.796Z,1004.18
2019-03-06T07:45:15.777Z,1004.13
2019-03-06T07:46:15.855Z,1004.17
2019-03-06T07:47:15.757Z,1004.25
2019-03-06T07:48:15.746Z,1004.13
2019-03-06T07:49:15.735Z,1004.17
2019-03-06T07:50:15.729Z,1004.16
2019-03-06T07:51:15.709Z,1004.15
2019-03-06T07:52:15.719Z,1004.12
2019-03-06T07:53:15.678Z,1004.14
2019-03-06T07:54:15.673Z,1004.21
2019-03-06T07:55:15.674Z,1004.24
2019-03-06T07:56:15.677Z,1004.19
2019-03-06T07:57:15.686Z,1004.19
2019-03-06T07:58:15.636Z,1004.20
2019-03-06T07:59:15.614Z,1004.22
2019-03-06T08:00:15.622Z,1004.21
2019-03-06T08:01:19.328Z,1004.13
2019-03-06T08:02:15.628Z,1004.21
2019-03-06T08:03:15.579Z,1004.25
2019-03-06T08:04:15.565Z,1004.24
2019-03-06T08:05:15.553Z,1004.24
2019-03-06T08:06:15.546Z,1004.21
2019-03-06T08:07:15.558Z,1004.13
2019-03-06T08:08:15.553Z,1004.14
2019-03-06T08:09:15.508Z,1004.05
2019-03-06T08:10:15.511Z,1004.07
2019-03-06T08:11:15.484Z,1004.08
2019-03-06T08:12:15.491Z,1004.12
2019-03-06T08:13:15.497Z,1004.15
2019-03-06T08:14:22.047Z,1004.18
2019-03-06T08:15:16.449Z,1004.08
2019-03-06T08:16:15.441Z,1004.07
2019-03-06T08:17:15.438Z,1004.02
2019-03-06T08:18:15.436Z,1004.13
2019-03-06T08:19:15.429Z,1004.06
2019-03-06T08:20:15.407Z,1004.10
2019-03-06T08:21:15.377Z,1004.12
2019-03-06T08:22:16.361Z,1004.13
2019-03-06T08:23:15.361Z,1004.01
2019-03-06T08:24:15.348Z,1004.07
2019-03-06T08:25:15.359Z,1004.12
2019-03-06T08:26:15.323Z,1004.04
2019-03-06T08:27:15.316Z,1004.08
2019-03-06T08:28:15.306Z,1004.11
2019-03-06T08:29:15.296Z,1004.05
2019-03-06T08:30:15.314Z,1004.03
2019-03-06T08:31:15.270Z,1003.97
2019-03-06T08:32:15.256Z,1004.03
2019-03-06T08:33:18.099Z,1003.94
2019-03-06T08:34:15.233Z,1004.00
2019-03-06T08:35:15.245Z,1003.98
2019-03-06T08:36:15.253Z,1003.96
2019-03-06T08:37:15.234Z,1003.93
2019-03-06T08:38:15.190Z,1004.01
2019-03-06T08:39:15.183Z,1003.97
2019-03-06T08:40:15.180Z,1004.03
2019-03-06T08:41:15.196Z,1003.99
2019-03-06T08:42:15.173Z,1004.06
2019-03-06T08:43:15.149Z,1003.88
2019-03-06T08:44:15.125Z,1003.77
2019-03-06T08:45:15.121Z,1003.78
2019-03-06T08:46:15.138Z,1003.79
2019-03-06T08:47:15.119Z,1003.91
2019-03-06T08:48:15.105Z,1003.83
2019-03-06T08:49:15.080Z,1003.73
2019-03-06T08:50:15.068Z,1003.84
2019-03-06T08:51:15.055Z,1003.85
2019-03-06T08:52:15.063Z,1003.75
2019-03-06T08:53:15.042Z,1003.75
2019-03-06T08:54:15.057Z,1003.84
2019-03-06T08:55:15.021Z,1003.59
2019-03-06T08:56:15.019Z,1003.74
2019-03-06T08:57:14.992Z,1003.92
2019-03-06T08:58:14.998Z,1003.81
2019-03-06T08:59:14.975Z,1003.66
2019-03-06T09:00:14.972Z,1003.69
2019-03-06T09:01:14.978Z,1003.71
2019-03-06T09:02:15.776Z,1003.82
2019-03-06T09:03:15.848Z,1003.81
2019-03-06T09:04:14.936Z,1003.84
2019-03-06T09:05:14.906Z,1003.77
2019-03-06T09:06:14.903Z,1003.73
2019-03-06T09:07:14.913Z,1003.76
2019-03-06T09:08:14.884Z,1003.66
2019-03-06T09:09:14.876Z,1003.68
2019-03-06T09:10:14.851Z,1003.65
2019-03-06T09:11:14.859Z,1003.70
2019-03-06T09:12:15.366Z,1003.71
2019-03-06T09:13:14.819Z,1003.62
2019-03-06T09:14:14.813Z,1003.64
2019-03-06T09:15:14.800Z,1003.66
2019-03-06T09:16:14.793Z,1003.61
2019-03-06T09:17:14.812Z,1003.59
2019-03-06T09:18:14.775Z,1003.57
2019-03-06T09:19:14.756Z,1003.55
2019-03-06T09:20:14.754Z,1003.59
2019-03-06T09:21:14.751Z,1003.52
2019-03-06T09:22:14.755Z,1003.47
2019-03-06T09:23:22.772Z,1003.46
2019-03-06T09:24:15.700Z,1003.50
2019-03-06T09:25:14.695Z,1003.41
2019-03-06T09:26:14.696Z,1003.47
2019-03-06T09:27:14.697Z,1003.39
2019-03-06T09:28:14.661Z,1003.44
2019-03-06T09:29:14.647Z,1003.41
2019-03-06T09:30:16.201Z,1003.32
2019-03-06T09:31:14.634Z,1003.31
2019-03-06T09:32:14.617Z,1003.33
2019-03-06T09:33:14.635Z,1003.30
2019-03-06T09:34:14.601Z,1003.27
2019-03-06T09:35:14.581Z,1003.21
2019-03-06T09:36:14.579Z,1003.22
2019-03-06T09:37:14.587Z,1003.17
2019-03-06T09:38:14.553Z,1003.23
2019-03-06T09:39:14.549Z,1003.18
2019-03-06T09:40:14.543Z,1003.24
2019-03-06T09:41:14.522Z,1003.22
2019-03-06T09:42:14.528Z,1003.20
2019-03-06T09:43:14.503Z,1003.17
2019-03-06T09:44:14.494Z,1003.08
2019-03-06T09:45:14.482Z,1003.09
2019-03-06T09:46:14.470Z,1003.08
2019-03-06T09:47:14.472Z,1003.16
2019-03-06T09:48:14.436Z,1003.17
2019-03-06T09:49:14.426Z,1003.19
2019-03-06T09:50:14.419Z,1003.11
2019-03-06T09:51:14.410Z,1003.09
2019-03-06T09:52:14.416Z,1003.02
2019-03-06T09:53:14.386Z,1003.00
2019-03-06T09:54:14.381Z,1003.08
2019-03-06T09:55:14.364Z,1003.04
2019-03-06T09:56:14.373Z,1003.04
2019-03-06T09:57:14.343Z,1002.99
2019-03-06T09:58:14.362Z,1002.99
2019-03-06T09:59:14.318Z,1003.04
2019-03-06T10:00:14.305Z,1003.03
2019-03-06T10:01:14.300Z,1002.95
2019-03-06T10:02:14.284Z,1002.92
2019-03-06T10:03:14.287Z,1002.94
2019-03-06T10:04:14.292Z,1002.91
2019-03-06T10:05:14.262Z,1002.90
2019-03-06T10:06:14.247Z,1002.87
2019-03-06T10:07:14.248Z,1002.92
2019-03-06T10:08:14.248Z,1002.90
2019-03-06T10:09:14.212Z,1002.93
2019-03-06T10:10:14.201Z,1002.91
2019-03-06T10:11:17.285Z,1002.90
2019-03-06T10:12:14.181Z,1002.82
2019-03-06T10:13:14.166Z,1002.87
2019-03-06T10:14:14.194Z,1002.91
2019-03-06T10:15:14.153Z,1002.98
2019-03-06T10:16:14.142Z,1003.01
2019-03-06T10:17:14.134Z,1003.00
2019-03-06T10:18:14.143Z,1002.97
2019-03-06T10:19:14.117Z,1002.93
2019-03-06T10:20:14.091Z,1002.90
2019-03-06T10:21:14.080Z,1002.91
2019-03-06T10:22:14.075Z,1003.03
2019-03-06T10:23:14.072Z,1002.89
2019-03-06T10:24:14.094Z,1002.91
2019-03-06T10:25:14.049Z,1002.88
2019-03-06T10:26:14.037Z,1002.92
2019-03-06T10:27:14.021Z,1002.82
2019-03-06T10:28:14.019Z,1002.66
2019-03-06T10:29:14.009Z,1002.78
2019-03-06T10:30:14.017Z,1002.73
2019-03-06T10:31:13.975Z,1002.70
2019-03-06T10:32:13.967Z,1002.77
2019-03-06T10:33:13.956Z,1002.79
2019-03-06T10:34:13.947Z,1002.77
2019-03-06T10:35:13.958Z,1002.72
2019-03-06T10:36:14.930Z,1002.73
2019-03-06T10:37:13.919Z,1002.68
2019-03-06T10:38:16.752Z,1002.62
2019-03-06T10:39:13.892Z,1002.65
2019-03-06T10:40:13.900Z,1002.77
2019-03-06T10:41:13.877Z,1002.71
2019-03-06T10:42:13.871Z,1002.70
2019-03-06T10:43:13.868Z,1002.74
2019-03-06T10:44:13.847Z,1002.68
2019-03-06T10:45:13.867Z,1002.67
2019-03-06T10:46:13.823Z,1002.68
2019-03-06T10:47:13.815Z,1002.67
2019-03-06T10:48:13.803Z,1002.52
2019-03-06T10:49:13.823Z,1002.63
2019-03-06T10:50:13.783Z,1002.67
2019-03-06T10:51:13.790Z,1002.53
2019-03-06T10:52:13.757Z,1002.62
2019-03-06T10:53:13.747Z,1002.57
2019-03-06T10:54:13.738Z,1002.56
2019-03-06T10:55:13.730Z,1002.48
2019-03-06T10:56:13.743Z,1002.58
2019-03-06T10:57:13.732Z,1002.64
2019-03-06T10:58:13.698Z,1002.57
2019-03-06T10:59:13.696Z,1002.57
2019-03-06T11:00:13.680Z,1002.50
2019-03-06T11:01:13.664Z,1002.40
2019-03-06T11:02:13.684Z,1002.42
2019-03-06T11:03:13.638Z,1002.46
2019-03-06T11:04:13.630Z,1002.40
2019-03-06T11:05:13.616Z,1002.33
2019-03-06T11:06:13.608Z,1002.27
2019-03-06T11:07:13.628Z,1002.19
2019-03-06T11:08:13.600Z,1002.14
2019-03-06T11:09:13.584Z,1002.20
2019-03-06T11:10:23.293Z,1002.18
2019-03-06T11:11:14.554Z,1002.19
2019-03-06T11:12:13.545Z,1002.17
2019-03-06T11:13:13.553Z,1002.19
2019-03-06T11:14:13.531Z,1002.15
2019-03-06T11:15:13.543Z,1002.07
2019-03-06T11:16:13.511Z,1001.97
2019-03-06T11:17:13.488Z,1002.06
2019-03-06T11:18:13.499Z,1002.08
2019-03-06T11:19:13.476Z,1002.00
2019-03-06T11:20:13.515Z,1002.08
2019-03-06T11:21:13.461Z,1001.93
2019-03-06T11:22:13.449Z,1001.88
2019-03-06T11:23:13.454Z,1001.89
2019-03-06T11:24:13.425Z,1001.89
2019-03-06T11:25:13.404Z,1001.82
2019-03-06T11:26:13.401Z,1001.77
2019-03-06T11:27:13.391Z,1001.83
2019-03-06T11:28:13.379Z,1001.80
2019-03-06T11:29:13.394Z,1001.78
2019-03-06T11:30:13.358Z,1001.79
2019-03-06T11:31:13.346Z,1001.77
2019-03-06T11:32:13.363Z,1001.73
2019-03-06T11:33:13.326Z,1001.84
2019-03-06T11:34:13.343Z,1001.77
2019-03-06T11:35:13.302Z,1001.78
2019-03-06T11:36:13.300Z,1001.70
2019-03-06T11:37:13.278Z,1001.72
2019-03-06T11:38:13.266Z,1001.71
2019-03-06T11:39:13.266Z,1001.69
2019-03-06T11:40:13.275Z,1001.72
2019-03-06T11:41:13.245Z,1001.78
2019-03-06T11:42:13.235Z,1001.77
2019-03-06T11:43:13.219Z,1001.77
2019-03-06T11:44:13.199Z,1001.72
2019-03-06T11:45:13.220Z,1001.77
2019-03-06T11:46:13.182Z,1001.79
2019-03-06T11:47:13.209Z,1001.74
2019-03-06T11:48:13.164Z,1001.71
2019-03-06T11:49:13.154Z,1001.67
2019-03-06T11:50:13.150Z,1001.63
2019-03-06T11:51:13.156Z,1001.59
2019-03-06T11:52:13.130Z,1001.60
2019-03-06T11:53:13.120Z,1001.61
2019-03-06T11:54:13.100Z,1001.62
2019-03-06T11:55:13.084Z,1001.57
2019-03-06T11:56:13.130Z,1001.59
2019-03-06T11:57:13.065Z,1001.56
2019-03-06T11:58:13.052Z,1001.47
2019-03-06T11:59:13.796Z,1001.46
2019-03-06T12:00:13.042Z,1001.48
2019-03-06T12:01:13.077Z,1001.51
2019-03-06T12:02:13.051Z,1001.44
2019-03-06T12:03:13.013Z,1001.44
2019-03-06T12:04:13.000Z,1001.46
2019-03-06T12:05:12.991Z,1001.50